createdAt,value
2023-05-03T00:00:02.002Z,0.00
2023-05-03T00:01:01.297Z,0.00
2023-05-03T00:02:01.309Z,0.00
2023-05-03T00:03:01.658Z,0.00
2023-05-03T00:04:01.308Z,0.00
2023-05-03T00:05:01.364Z,0.00
2023-05-03T00:06:09.566Z,0.00
2023-05-03T00:07:01.647Z,0.00
2023-05-03T00:08:01.604Z,0.00
2023-05-03T00:09:01.543Z,0.00
2023-05-03T00:10:01.648Z,0.00
2023-05-03T00:11:01.313Z,0.00
2023-05-03T00:12:01.733Z,1.17
2023-05-03T00:13:01.568Z,0.90
2023-05-03T00:14:01.674Z,0.00
2023-05-03T00:15:01.316Z,0.00
2023-05-03T00:16:01.262Z,0.00
2023-05-03T00:17:01.412Z,0.00
2023-05-03T00:18:01.651Z,0.00
2023-05-03T00:19:01.337Z,0.00
2023-05-03T00:20:02.089Z,0.00
2023-05-03T00:21:01.531Z,0.00
2023-05-03T00:22:01.571Z,0.00
2023-05-03T00:23:01.562Z,0.00
2023-05-03T00:24:01.616Z,0.00
2023-05-03T00:25:01.982Z,0.00
2023-05-03T00:26:01.671Z,0.00
2023-05-03T00:27:03.236Z,0.00
2023-05-03T00:28:01.606Z,0.00
2023-05-03T00:29:01.303Z,0.10
2023-05-03T00:30:02.019Z,0.47
2023-05-03T00:31:06.785Z,0.13
2023-05-03T00:32:01.411Z,0.23
2023-05-03T00:33:01.596Z,0.00
2023-05-03T00:34:01.589Z,0.00
2023-05-03T00:35:01.784Z,0.07
2023-05-03T00:36:07.321Z,0.00
2023-05-03T00:37:01.774Z,0.00
2023-05-03T00:38:01.550Z,0.23
2023-05-03T00:39:01.320Z,0.70
2023-05-03T00:40:01.469Z,0.83
2023-05-03T00:41:01.721Z,0.13
2023-05-03T00:42:02.715Z,0.00
2023-05-03T00:43:01.837Z,0.00
2023-05-03T00:44:01.301Z,0.00
2023-05-03T00:45:01.283Z,0.57
2023-05-03T00:46:16.083Z,0.03
2023-05-03T00:47:01.468Z,0.00
2023-05-03T00:48:01.744Z,0.00
2023-05-03T00:49:01.826Z,0.00
2023-05-03T00:50:02.276Z,0.00
2023-05-03T00:51:02.466Z,0.00
2023-05-03T00:52:02.200Z,0.00
2023-05-03T00:53:01.743Z,0.00
2023-05-03T00:54:01.778Z,0.00
2023-05-03T00:55:01.375Z,0.40
2023-05-03T00:56:02.500Z,0.00
2023-05-03T00:57:04.138Z,0.53
2023-05-03T00:58:01.295Z,2.00
2023-05-03T00:59:01.730Z,2.17
2023-05-03T01:00:02.009Z,0.47
2023-05-03T01:01:01.997Z,0.00
2023-05-03T01:02:01.335Z,0.00
2023-05-03T01:03:01.314Z,0.00
2023-05-03T01:04:03.043Z,0.00
2023-05-03T01:05:02.656Z,0.00
2023-05-03T01:06:07.687Z,0.00
2023-05-03T01:07:15.669Z,0.00
2023-05-03T01:08:10.588Z,0.67
2023-05-03T01:09:09.146Z,0.00
2023-05-03T01:10:10.984Z,0.00
2023-05-03T01:11:07.631Z,0.00
2023-05-03T01:12:12.869Z,0.00
2023-05-03T01:13:13.756Z,0.00
2023-05-03T01:14:09.136Z,0.00
2023-05-03T01:15:11.508Z,0.00
2023-05-03T01:16:08.353Z,0.00
2023-05-03T01:17:08.138Z,0.00
2023-05-03T01:18:06.334Z,0.00
2023-05-03T01:19:07.904Z,0.00
2023-05-03T01:20:05.055Z,0.00
2023-05-03T01:21:03.724Z,0.00
2023-05-03T01:22:09.810Z,0.00
2023-05-03T01:23:09.933Z,0.00
2023-05-03T01:24:10.408Z,0.70
2023-05-03T01:25:06.429Z,0.00
2023-05-03T01:26:14.844Z,0.00
2023-05-03T01:27:01.518Z,0.00
2023-05-03T01:28:01.321Z,0.00
2023-05-03T01:29:01.319Z,0.00
2023-05-03T01:30:03.638Z,0.00
2023-05-03T01:31:01.331Z,0.17
2023-05-03T01:32:04.607Z,0.00
2023-05-03T01:33:09.050Z,0.00
2023-05-03T01:34:13.639Z,0.00
2023-05-03T01:35:07.637Z,0.00
2023-05-03T01:36:12.664Z,0.07
2023-05-03T01:37:03.526Z,0.20
2023-05-03T01:38:03.180Z,0.00
2023-05-03T01:39:08.355Z,0.00
2023-05-03T01:40:03.574Z,0.00
2023-05-03T01:41:05.697Z,0.00
2023-05-03T01:42:03.752Z,0.40
2023-05-03T01:43:03.348Z,0.80
2023-05-03T01:44:03.315Z,0.47
2023-05-03T01:45:03.028Z,0.00
2023-05-03T01:46:01.690Z,0.00
2023-05-03T01:47:01.669Z,0.40
2023-05-03T01:48:01.391Z,0.00
2023-05-03T01:49:01.450Z,0.00
2023-05-03T01:50:01.483Z,0.00
2023-05-03T01:51:01.300Z,0.00
2023-05-03T01:52:01.577Z,0.00
2023-05-03T01:53:01.636Z,0.00
2023-05-03T01:54:01.691Z,0.00
2023-05-03T01:55:01.310Z,0.00
2023-05-03T01:56:01.250Z,0.27
2023-05-03T01:57:01.241Z,0.00
2023-05-03T01:58:01.658Z,0.00
2023-05-03T01:59:01.329Z,0.50
2023-05-03T02:00:02.261Z,0.00
2023-05-03T02:01:03.656Z,0.00
2023-05-03T02:02:01.286Z,0.87
2023-05-03T02:03:01.312Z,0.00
2023-05-03T02:04:01.355Z,0.00
2023-05-03T02:05:01.673Z,0.07
2023-05-03T02:06:01.347Z,0.47
2023-05-03T02:07:01.338Z,0.00
2023-05-03T02:08:01.679Z,0.00
2023-05-03T02:09:01.763Z,0.00
2023-05-03T02:10:01.889Z,0.00
2023-05-03T02:11:01.479Z,0.00
2023-05-03T02:12:01.672Z,0.10
2023-05-03T02:13:01.268Z,0.00
2023-05-03T02:14:01.324Z,0.00
2023-05-03T02:15:01.334Z,0.00
2023-05-03T02:16:01.306Z,0.67
2023-05-03T02:17:01.672Z,0.67
2023-05-03T02:18:01.369Z,0.27
2023-05-03T02:19:01.273Z,0.43
2023-05-03T02:20:01.547Z,0.20
2023-05-03T02:21:01.683Z,0.07
2023-05-03T02:22:02.147Z,0.47
2023-05-03T02:23:01.296Z,0.30
2023-05-03T02:24:01.725Z,0.00
2023-05-03T02:25:01.610Z,0.10
2023-05-03T02:26:01.399Z,0.63
2023-05-03T02:27:01.471Z,0.50
2023-05-03T02:28:01.317Z,0.00
2023-05-03T02:29:01.244Z,0.03
2023-05-03T02:30:02.283Z,0.67
2023-05-03T02:31:01.376Z,0.00
2023-05-03T02:32:01.608Z,0.00
2023-05-03T02:33:02.070Z,0.00
2023-05-03T02:34:01.701Z,0.00
2023-05-03T02:35:01.619Z,0.00
2023-05-03T02:36:01.653Z,0.57
2023-05-03T02:37:01.643Z,0.20
2023-05-03T02:38:01.352Z,0.23
2023-05-03T02:39:01.254Z,0.00
2023-05-03T02:40:01.562Z,0.43
2023-05-03T02:41:01.299Z,0.00
2023-05-03T02:42:01.630Z,0.67
2023-05-03T02:43:01.235Z,0.00
2023-05-03T02:44:01.793Z,0.10
2023-05-03T02:45:01.684Z,0.00
2023-05-03T02:46:01.623Z,0.27
2023-05-03T02:47:01.605Z,0.60
2023-05-03T02:48:01.390Z,0.10
2023-05-03T02:49:01.263Z,0.00
2023-05-03T02:50:01.962Z,0.00
2023-05-03T02:51:01.782Z,0.00
2023-05-03T02:52:01.602Z,0.00
2023-05-03T02:53:01.275Z,0.00
2023-05-03T02:54:02.200Z,0.00
2023-05-03T02:55:02.412Z,0.00
2023-05-03T02:56:01.299Z,0.00
2023-05-03T02:57:01.472Z,0.00
2023-05-03T02:58:01.618Z,0.00
2023-05-03T02:59:01.555Z,0.97
2023-05-03T03:00:02.127Z,0.37
2023-05-03T03:01:01.662Z,0.00
2023-05-03T03:02:01.645Z,0.63
2023-05-03T03:03:01.802Z,0.53
2023-05-03T03:04:01.545Z,0.30
2023-05-03T03:05:01.628Z,0.47
2023-05-03T03:06:01.780Z,0.43
2023-05-03T03:07:01.376Z,0.63
2023-05-03T03:08:01.556Z,0.20
2023-05-03T03:09:01.248Z,0.40
2023-05-03T03:10:01.410Z,0.00
2023-05-03T03:11:02.087Z,0.00
2023-05-03T03:12:01.841Z,0.00
2023-05-03T03:13:01.710Z,0.00
2023-05-03T03:14:01.291Z,0.00
2023-05-03T03:15:01.667Z,0.00
2023-05-03T03:16:01.339Z,0.97
2023-05-03T03:17:01.801Z,0.10
2023-05-03T03:18:01.379Z,0.00
2023-05-03T03:19:01.612Z,0.23
2023-05-03T03:20:01.453Z,0.00
2023-05-03T03:21:01.599Z,0.57
2023-05-03T03:22:01.647Z,0.00
2023-05-03T03:23:01.325Z,0.07
2023-05-03T03:24:01.315Z,0.70
2023-05-03T03:25:01.637Z,0.20
2023-05-03T03:26:01.232Z,0.00
2023-05-03T03:27:01.611Z,0.00
2023-05-03T03:28:01.561Z,0.00
2023-05-03T03:29:01.658Z,0.10
2023-05-03T03:30:02.093Z,0.50
2023-05-03T03:31:01.450Z,0.10
2023-05-03T03:32:01.994Z,0.70
2023-05-03T03:33:01.723Z,0.00
2023-05-03T03:34:01.267Z,0.20
2023-05-03T03:35:01.762Z,0.37
2023-05-03T03:36:01.312Z,0.47
2023-05-03T03:37:01.252Z,0.00
2023-05-03T03:38:01.604Z,1.00
2023-05-03T03:39:01.563Z,0.13
2023-05-03T03:40:01.507Z,0.00
2023-05-03T03:41:01.702Z,0.00
2023-05-03T03:42:01.878Z,0.00
2023-05-03T03:43:01.293Z,0.00
2023-05-03T03:44:01.685Z,0.83
2023-05-03T03:45:01.274Z,0.47
2023-05-03T03:46:01.306Z,0.00
2023-05-03T03:47:01.665Z,0.57
2023-05-03T03:48:01.335Z,0.77
2023-05-03T03:49:01.264Z,0.47
2023-05-03T03:50:02.249Z,0.37
2023-05-03T03:51:01.297Z,0.10
2023-05-03T03:52:01.701Z,0.00
2023-05-03T03:53:01.452Z,0.00
2023-05-03T03:54:01.606Z,0.10
2023-05-03T03:55:01.351Z,0.37
2023-05-03T03:56:01.615Z,0.73
2023-05-03T03:57:01.308Z,0.57
2023-05-03T03:58:01.591Z,0.00
2023-05-03T03:59:01.262Z,0.00
2023-05-03T04:00:01.887Z,0.00
2023-05-03T04:01:01.857Z,0.00
2023-05-03T04:02:01.636Z,0.13
2023-05-03T04:03:01.746Z,0.90
2023-05-03T04:04:01.525Z,0.17
2023-05-03T04:05:01.673Z,0.00
2023-05-03T04:06:01.293Z,0.00
2023-05-03T04:07:01.696Z,0.47
2023-05-03T04:08:01.600Z,0.23
2023-05-03T04:09:01.642Z,0.00
2023-05-03T04:10:01.557Z,0.10
2023-05-03T04:11:02.092Z,0.60
2023-05-03T04:12:01.466Z,0.00
2023-05-03T04:13:01.578Z,0.63
2023-05-03T04:14:01.304Z,0.93
2023-05-03T04:15:01.331Z,0.07
2023-05-03T04:16:02.606Z,0.97
2023-05-03T04:17:01.399Z,1.00
2023-05-03T04:18:01.574Z,1.00
2023-05-03T04:19:01.610Z,0.53
2023-05-03T04:20:01.797Z,0.53
2023-05-03T04:21:01.474Z,0.67
2023-05-03T04:22:01.290Z,0.90
2023-05-03T04:23:01.848Z,1.00
2023-05-03T04:24:02.491Z,0.80
2023-05-03T04:25:01.308Z,0.37
2023-05-03T04:26:02.604Z,0.40
2023-05-03T04:27:01.276Z,0.10
2023-05-03T04:28:01.312Z,0.80
2023-05-03T04:29:01.275Z,0.00
2023-05-03T04:30:01.610Z,0.53
2023-05-03T04:31:01.574Z,0.93
2023-05-03T04:32:01.544Z,1.00
2023-05-03T04:33:01.630Z,0.90
2023-05-03T04:34:01.863Z,0.43
2023-05-03T04:35:01.293Z,0.67
2023-05-03T04:36:01.664Z,0.43
2023-05-03T04:37:01.310Z,1.30
2023-05-03T04:38:01.605Z,0.43
2023-05-03T04:39:01.597Z,0.80
2023-05-03T04:40:01.931Z,0.13
2023-05-03T04:41:01.520Z,1.00
2023-05-03T04:42:01.273Z,0.73
2023-05-03T04:43:01.607Z,0.57
2023-05-03T04:44:01.288Z,0.60
2023-05-03T04:45:02.315Z,0.23
2023-05-03T04:46:01.908Z,1.00
2023-05-03T04:47:01.722Z,0.77
2023-05-03T04:48:01.335Z,0.53
2023-05-03T04:49:01.268Z,0.03
2023-05-03T04:50:01.953Z,0.93
2023-05-03T04:51:01.314Z,1.20
2023-05-03T04:52:01.700Z,0.40
2023-05-03T04:53:01.283Z,0.77
2023-05-03T04:54:01.617Z,0.53
2023-05-03T04:55:01.719Z,1.00
2023-05-03T04:56:01.453Z,0.80
2023-05-03T04:57:01.356Z,1.00
2023-05-03T04:58:01.632Z,0.70
2023-05-03T04:59:01.653Z,0.93
2023-05-03T05:00:02.066Z,0.00
2023-05-03T05:01:01.308Z,1.00
2023-05-03T05:02:01.795Z,0.47
2023-05-03T05:03:01.670Z,0.83
2023-05-03T05:04:01.296Z,0.67
2023-05-03T05:05:01.666Z,0.43
2023-05-03T05:06:01.412Z,1.00
2023-05-03T05:07:01.431Z,1.00
2023-05-03T05:08:01.266Z,0.87
2023-05-03T05:09:01.292Z,1.03
2023-05-03T05:10:01.874Z,1.00
2023-05-03T05:11:01.795Z,0.83
2023-05-03T05:12:01.679Z,0.70
2023-05-03T05:13:01.307Z,0.77
2023-05-03T05:14:01.326Z,1.40
2023-05-03T05:15:01.318Z,1.73
2023-05-03T05:16:01.756Z,0.90
2023-05-03T05:17:01.320Z,1.00
2023-05-03T05:18:01.856Z,0.47
2023-05-03T05:19:01.290Z,0.83
2023-05-03T05:20:01.883Z,1.00
2023-05-03T05:21:01.272Z,0.77
2023-05-03T05:22:01.351Z,0.57
2023-05-03T05:23:01.294Z,1.00
2023-05-03T05:24:01.594Z,0.80
2023-05-03T05:25:01.292Z,0.53
2023-05-03T05:26:01.744Z,0.37
2023-05-03T05:27:02.143Z,0.57
2023-05-03T05:28:01.327Z,1.07
2023-05-03T05:29:01.748Z,0.67
2023-05-03T05:30:01.882Z,0.57
2023-05-03T05:31:01.298Z,0.63
2023-05-03T05:32:01.824Z,0.83
2023-05-03T05:33:01.390Z,1.07
2023-05-03T05:34:01.524Z,1.00
2023-05-03T05:35:01.293Z,0.83
2023-05-03T05:36:01.328Z,0.47
2023-05-03T05:37:01.286Z,0.63
2023-05-03T05:38:01.719Z,1.00
2023-05-03T05:39:01.286Z,1.00
2023-05-03T05:40:01.646Z,1.00
2023-05-03T05:41:01.671Z,1.43
2023-05-03T05:42:01.310Z,0.93
2023-05-03T05:43:01.247Z,0.87
2023-05-03T05:44:01.678Z,1.23
2023-05-03T05:45:01.263Z,1.00
2023-05-03T05:46:01.633Z,1.60
2023-05-03T05:47:01.686Z,1.30
2023-05-03T05:48:01.627Z,1.00
2023-05-03T05:49:01.638Z,1.43
2023-05-03T05:50:01.978Z,1.10
2023-05-03T05:51:02.096Z,0.90
2023-05-03T05:52:01.656Z,1.00
2023-05-03T05:53:01.589Z,1.00
2023-05-03T05:54:01.294Z,0.27
2023-05-03T05:55:01.587Z,1.00
2023-05-03T05:56:01.306Z,0.90
2023-05-03T05:57:01.234Z,1.13
2023-05-03T05:58:01.298Z,1.00
2023-05-03T05:59:01.578Z,0.87
2023-05-03T06:00:01.633Z,1.23
2023-05-03T06:01:01.409Z,0.67
2023-05-03T06:02:02.257Z,0.63
2023-05-03T06:03:01.689Z,1.00
2023-05-03T06:04:01.301Z,0.87
2023-05-03T06:05:01.347Z,0.73
2023-05-03T06:06:01.603Z,0.70
2023-05-03T06:07:01.250Z,1.90
2023-05-03T06:08:01.623Z,1.00
2023-05-03T06:09:09.738Z,0.80
2023-05-03T06:10:02.026Z,0.47
2023-05-03T06:11:01.697Z,1.13
2023-05-03T06:12:01.630Z,1.00
2023-05-03T06:13:01.636Z,0.93
2023-05-03T06:14:01.306Z,0.87
2023-05-03T06:15:03.094Z,1.67
2023-05-03T06:16:01.298Z,1.00
2023-05-03T06:17:01.306Z,0.80
2023-05-03T06:18:01.350Z,0.73
2023-05-03T06:19:01.286Z,0.93
2023-05-03T06:20:02.028Z,0.80
2023-05-03T06:21:01.334Z,1.00
2023-05-03T06:22:01.861Z,1.00
2023-05-03T06:23:01.677Z,0.97
2023-05-03T06:24:01.404Z,2.00
2023-05-03T06:25:01.542Z,1.00
2023-05-03T06:26:01.314Z,2.17
2023-05-03T06:27:01.589Z,1.00
2023-05-03T06:28:01.683Z,1.33
2023-05-03T06:29:02.305Z,0.87
2023-05-03T06:30:01.934Z,1.60
2023-05-03T06:31:01.685Z,1.27
2023-05-03T06:32:01.293Z,1.20
2023-05-03T06:33:01.641Z,1.43
2023-05-03T06:34:01.235Z,1.03
2023-05-03T06:35:01.479Z,1.00
2023-05-03T06:36:01.266Z,1.73
2023-05-03T06:37:01.811Z,1.20
2023-05-03T06:38:01.635Z,1.07
2023-05-03T06:39:01.556Z,1.00
2023-05-03T06:40:01.806Z,1.37
2023-05-03T06:41:01.542Z,2.00
2023-05-03T06:42:01.248Z,1.83
2023-05-03T06:43:01.262Z,1.13
2023-05-03T06:44:01.773Z,1.13
2023-05-03T06:45:01.292Z,1.30
2023-05-03T06:46:01.505Z,1.37
2023-05-03T06:47:01.765Z,1.80
2023-05-03T06:48:01.783Z,1.00
2023-05-03T06:49:01.704Z,1.00
2023-05-03T06:50:01.887Z,1.13
2023-05-03T06:51:01.246Z,1.53
2023-05-03T06:52:01.543Z,1.17
2023-05-03T06:53:01.782Z,1.07
2023-05-03T06:54:02.104Z,1.33
2023-05-03T06:55:01.655Z,1.73
2023-05-03T06:56:01.332Z,1.73
2023-05-03T06:57:01.498Z,2.07
2023-05-03T06:58:01.236Z,1.20
2023-05-03T06:59:02.155Z,1.47
2023-05-03T07:00:01.848Z,2.30
2023-05-03T07:01:01.558Z,1.10
2023-05-03T07:02:01.684Z,1.30
2023-05-03T07:03:01.645Z,2.00
2023-05-03T07:04:01.355Z,1.73
2023-05-03T07:05:01.301Z,2.00
2023-05-03T07:06:01.627Z,2.00
2023-05-03T07:07:01.668Z,1.80
2023-05-03T07:08:01.746Z,1.90
2023-05-03T07:09:01.604Z,1.87
2023-05-03T07:10:02.039Z,2.20
2023-05-03T07:11:01.346Z,2.10
2023-05-03T07:12:01.297Z,2.00
2023-05-03T07:13:01.589Z,1.73
2023-05-03T07:14:01.244Z,1.37
2023-05-03T07:16:03.672Z,2.00
2023-05-03T07:17:01.656Z,2.43
2023-05-03T07:18:01.355Z,2.47
2023-05-03T07:19:01.454Z,1.70
2023-05-03T07:20:01.901Z,1.90
2023-05-03T07:21:01.553Z,2.30
2023-05-03T07:22:01.246Z,2.00
2023-05-03T07:23:01.704Z,2.00
2023-05-03T07:24:01.269Z,1.70
2023-05-03T07:25:01.292Z,2.00
2023-05-03T07:26:01.644Z,1.27
2023-05-03T07:27:01.315Z,1.97
2023-05-03T07:28:01.299Z,1.90
2023-05-03T07:29:01.591Z,1.13
2023-05-03T07:30:01.515Z,2.33
2023-05-03T07:31:02.468Z,2.00
2023-05-03T07:32:01.294Z,2.30
2023-05-03T07:33:01.668Z,1.67
2023-05-03T07:34:01.651Z,1.80
2023-05-03T07:35:01.588Z,1.40
2023-05-03T07:36:01.590Z,2.47
2023-05-03T07:37:01.250Z,1.50
2023-05-03T07:38:01.331Z,2.13
2023-05-03T07:39:01.267Z,2.53
2023-05-03T07:40:01.539Z,2.57
2023-05-03T07:41:01.404Z,1.50
2023-05-03T07:42:01.276Z,2.07
2023-05-03T07:43:01.240Z,2.30
2023-05-03T07:44:01.624Z,2.00
2023-05-03T07:45:01.660Z,1.90
2023-05-03T07:46:01.629Z,2.00
2023-05-03T07:47:01.241Z,2.10
2023-05-03T07:48:01.699Z,1.97
2023-05-03T07:49:01.359Z,2.00
2023-05-03T07:50:01.512Z,1.73
2023-05-03T07:51:02.770Z,2.00
2023-05-03T07:52:01.382Z,2.03
2023-05-03T07:53:01.294Z,1.43
2023-05-03T07:54:01.296Z,1.40
2023-05-03T07:55:01.311Z,2.00
2023-05-03T07:56:01.617Z,1.83
2023-05-03T07:57:01.230Z,2.13
2023-05-03T07:58:01.757Z,2.00
2023-05-03T07:59:09.029Z,1.77
2023-05-03T08:00:02.051Z,2.00
2023-05-03T08:01:01.557Z,1.90
2023-05-03T08:02:01.998Z,2.00
2023-05-03T08:03:01.975Z,1.93
2023-05-03T08:04:01.469Z,2.77
2023-05-03T08:05:01.648Z,2.00
2023-05-03T08:06:01.284Z,2.00
2023-05-03T08:07:02.207Z,1.07
2023-05-03T08:08:01.656Z,1.90
2023-05-03T08:09:01.307Z,2.70
2023-05-03T08:10:01.782Z,1.63
2023-05-03T08:11:01.315Z,2.40
2023-05-03T08:12:01.567Z,2.00
2023-05-03T08:13:01.647Z,2.00
2023-05-03T08:14:01.428Z,2.23
2023-05-03T08:15:01.309Z,2.53
2023-05-03T08:16:01.607Z,1.97
2023-05-03T08:17:01.289Z,2.10
2023-05-03T08:18:01.289Z,2.27
2023-05-03T08:19:01.241Z,1.93
2023-05-03T08:20:01.455Z,1.33
2023-05-03T08:21:01.287Z,1.70
2023-05-03T08:22:01.235Z,1.90
2023-05-03T08:23:01.647Z,2.13
2023-05-03T08:24:01.302Z,1.53
2023-05-03T08:25:01.453Z,2.00
2023-05-03T08:26:01.282Z,2.00
2023-05-03T08:27:01.331Z,2.07
2023-05-03T08:28:01.704Z,1.63
2023-05-03T08:29:01.561Z,2.00
2023-05-03T08:30:01.435Z,1.23
2023-05-03T08:31:01.294Z,2.00
2023-05-03T08:32:01.493Z,2.67
2023-05-03T08:33:01.706Z,1.90
2023-05-03T08:34:01.244Z,2.90
2023-05-03T08:35:01.661Z,1.57
2023-05-03T08:36:01.514Z,1.53
2023-05-03T08:37:01.680Z,1.30
2023-05-03T08:38:01.596Z,2.20
2023-05-03T08:39:02.040Z,2.00
2023-05-03T08:40:01.486Z,1.73
2023-05-03T08:41:17.969Z,2.27
2023-05-03T08:42:06.490Z,1.93
2023-05-03T08:43:07.364Z,2.27
2023-05-03T08:44:01.841Z,2.20
2023-05-03T08:45:02.227Z,2.00
2023-05-03T08:46:01.589Z,2.00
2023-05-03T08:47:03.126Z,1.20
2023-05-03T08:48:01.379Z,2.10
2023-05-03T08:49:01.895Z,1.77
2023-05-03T08:50:03.735Z,2.00
2023-05-03T08:51:04.514Z,2.13
2023-05-03T08:52:01.864Z,3.33
2023-05-03T08:53:01.354Z,3.27
2023-05-03T08:54:01.287Z,2.67
2023-05-03T08:55:01.343Z,3.10
2023-05-03T08:56:05.371Z,3.07
2023-05-03T08:57:01.663Z,2.63
2023-05-03T08:58:02.323Z,2.97
2023-05-03T08:59:01.615Z,2.13
2023-05-03T09:00:02.988Z,2.90
2023-05-03T09:01:04.270Z,2.43
2023-05-03T09:02:01.633Z,2.00
2023-05-03T09:03:01.443Z,3.00
2023-05-03T09:04:01.911Z,2.83
2023-05-03T09:05:01.960Z,2.00
2023-05-03T09:06:02.384Z,2.03
2023-05-03T09:07:07.269Z,2.77
2023-05-03T09:08:02.603Z,1.70
2023-05-03T09:09:03.035Z,2.03
2023-05-03T09:10:01.299Z,2.30
2023-05-03T09:11:01.321Z,2.60
2023-05-03T09:12:01.871Z,2.77
2023-05-03T09:13:02.261Z,2.00
2023-05-03T09:14:12.247Z,2.17
2023-05-03T09:15:01.706Z,2.00
2023-05-03T09:16:01.335Z,2.10
2023-05-03T09:17:15.189Z,2.33
2023-05-03T09:18:10.970Z,3.20
2023-05-03T09:19:03.881Z,2.17
2023-05-03T09:20:02.115Z,2.67
2023-05-03T09:21:01.308Z,2.93
2023-05-03T09:22:06.255Z,1.93
2023-05-03T09:23:01.847Z,2.20
2023-05-03T09:24:01.702Z,2.20
2023-05-03T09:25:01.541Z,1.73
2023-05-03T09:26:01.661Z,3.17
2023-05-03T09:27:01.541Z,2.70
2023-05-03T09:28:01.633Z,2.07
2023-05-03T09:29:03.089Z,2.10
2023-05-03T09:30:17.096Z,2.90
2023-05-03T09:31:06.421Z,2.00
2023-05-03T09:32:03.297Z,2.80
2023-05-03T09:33:01.584Z,2.23
2023-05-03T09:34:11.455Z,2.27
2023-05-03T09:35:08.932Z,3.00
2023-05-03T09:36:02.872Z,2.33
2023-05-03T09:37:01.294Z,2.83
2023-05-03T09:38:01.480Z,1.83
2023-05-03T09:39:15.964Z,2.63
2023-05-03T09:40:05.152Z,2.03
2023-05-03T09:41:02.291Z,2.67
2023-05-03T09:42:10.373Z,1.90
2023-05-03T09:43:05.603Z,2.13
2023-05-03T09:44:01.234Z,2.47
2023-05-03T09:45:01.540Z,2.80
2023-05-03T09:46:10.259Z,3.13
2023-05-03T09:47:03.076Z,3.77
2023-05-03T09:48:03.023Z,2.97
2023-05-03T09:49:01.377Z,1.73
2023-05-03T09:50:01.644Z,3.47
2023-05-03T09:51:02.377Z,3.30
2023-05-03T09:52:02.060Z,2.70
2023-05-03T09:53:03.176Z,3.80
2023-05-03T09:54:02.242Z,2.43
2023-05-03T09:55:01.930Z,2.73
2023-05-03T09:56:03.642Z,3.27
2023-05-03T09:57:02.879Z,2.53
2023-05-03T09:58:02.293Z,2.90
2023-05-03T09:59:01.674Z,2.93
2023-05-03T10:00:02.827Z,2.93
2023-05-03T10:01:02.061Z,2.63
2023-05-03T10:02:04.542Z,2.00
2023-05-03T10:03:04.242Z,3.50
2023-05-03T10:04:03.488Z,3.53
2023-05-03T10:05:05.324Z,3.47
2023-05-03T10:06:05.893Z,3.13
2023-05-03T10:07:06.963Z,2.90
2023-05-03T10:08:03.785Z,3.43
2023-05-03T10:09:07.990Z,3.27
2023-05-03T10:10:01.627Z,3.67
2023-05-03T10:11:03.218Z,4.87
2023-05-03T10:12:06.300Z,4.20
2023-05-03T10:13:02.687Z,4.03
2023-05-03T10:14:03.618Z,5.60
2023-05-03T10:15:06.806Z,4.37
2023-05-03T10:16:05.603Z,3.90
2023-05-03T10:17:07.207Z,3.80
2023-05-03T10:18:06.456Z,3.40
2023-05-03T10:19:08.978Z,2.87
2023-05-03T10:20:12.024Z,3.30
2023-05-03T10:21:06.517Z,3.00
2023-05-03T10:22:03.542Z,3.70
2023-05-03T10:23:10.834Z,4.13
2023-05-03T10:24:09.794Z,3.03
2023-05-03T10:25:09.646Z,4.90
2023-05-03T10:26:12.560Z,3.20
2023-05-03T10:27:02.265Z,4.00
2023-05-03T10:28:02.124Z,3.03
2023-05-03T10:29:01.492Z,3.53
2023-05-03T10:30:01.518Z,2.70
2023-05-03T10:31:02.145Z,4.13
2023-05-03T10:32:01.953Z,3.10
2023-05-03T10:33:20.729Z,3.33
2023-05-03T10:34:20.699Z,3.70
2023-05-03T10:35:03.739Z,3.50
2023-05-03T10:36:05.980Z,3.83
2023-05-03T10:37:07.097Z,4.53
2023-05-03T10:38:13.278Z,3.90
2023-05-03T10:39:02.820Z,4.17
2023-05-03T10:40:10.586Z,4.37
2023-05-03T10:41:01.776Z,3.50
2023-05-03T10:42:02.925Z,3.47
2023-05-03T10:43:01.255Z,6.00
2023-05-03T10:44:01.287Z,4.33
2023-05-03T10:45:01.476Z,4.00
2023-05-03T10:46:02.341Z,4.63
2023-05-03T10:47:11.673Z,4.00
2023-05-03T10:48:14.802Z,3.20
2023-05-03T10:49:14.883Z,3.33
2023-05-03T10:50:20.725Z,3.80
2023-05-03T10:51:20.692Z,3.53
2023-05-03T10:52:01.344Z,4.33
2023-05-03T10:53:01.686Z,3.73
2023-05-03T10:54:01.331Z,3.00
2023-05-03T10:55:01.931Z,3.90
2023-05-03T10:56:02.386Z,3.03
2023-05-03T10:57:01.333Z,4.00
2023-05-03T10:58:02.333Z,3.17
2023-05-03T10:59:01.776Z,2.67
2023-05-03T11:00:01.408Z,3.33
2023-05-03T11:01:02.728Z,2.50
2023-05-03T11:02:01.547Z,2.93
2023-05-03T11:03:20.696Z,4.70
2023-05-03T11:04:07.168Z,3.87
2023-05-03T11:05:07.950Z,3.97
2023-05-03T11:06:01.322Z,3.47
2023-05-03T11:07:01.336Z,2.47
2023-05-03T11:08:11.687Z,3.50
2023-05-03T11:09:03.137Z,2.17
2023-05-03T11:10:18.956Z,2.17
2023-05-03T11:11:01.238Z,2.47
2023-05-03T11:12:06.460Z,3.10
2023-05-03T11:13:01.233Z,2.87
2023-05-03T11:14:02.048Z,2.37
2023-05-03T11:15:01.392Z,2.33
2023-05-03T11:16:02.967Z,2.20
2023-05-03T11:17:02.073Z,2.10
2023-05-03T11:18:01.864Z,3.50
2023-05-03T11:19:02.085Z,2.17
2023-05-03T11:20:01.333Z,2.13
2023-05-03T11:21:02.302Z,2.87
2023-05-03T11:22:01.400Z,2.90
2023-05-03T11:23:01.801Z,2.33
2023-05-03T11:24:01.808Z,2.73
2023-05-03T11:25:01.695Z,2.30
2023-05-03T11:26:05.854Z,2.00
2023-05-03T11:27:08.395Z,2.80
2023-05-03T11:28:02.362Z,1.73
2023-05-03T11:29:01.696Z,1.53
2023-05-03T11:30:01.567Z,1.67
2023-05-03T11:31:02.400Z,2.43
2023-05-03T11:32:01.420Z,1.37
2023-05-03T11:33:02.581Z,2.50
2023-05-03T11:34:01.932Z,2.60
2023-05-03T11:35:01.926Z,2.83
2023-05-03T11:36:01.429Z,2.50
2023-05-03T11:37:02.474Z,1.93
2023-05-03T11:38:01.916Z,2.47
2023-05-03T11:39:01.704Z,2.27
2023-05-03T11:40:01.992Z,1.40
2023-05-03T11:41:11.910Z,1.57
2023-05-03T11:42:02.707Z,1.97
2023-05-03T11:43:01.859Z,2.00
2023-05-03T11:44:15.097Z,2.00
2023-05-03T11:45:01.730Z,1.50
2023-05-03T11:46:01.463Z,1.77
2023-05-03T11:47:02.358Z,1.00
2023-05-03T11:48:01.507Z,2.00
2023-05-03T11:49:02.533Z,2.00
2023-05-03T11:50:01.287Z,3.20
2023-05-03T11:51:07.032Z,2.07
2023-05-03T11:52:01.778Z,1.30
2023-05-03T11:53:01.380Z,0.93
2023-05-03T11:54:13.004Z,1.37
2023-05-03T11:55:01.870Z,0.70
2023-05-03T11:56:01.575Z,1.30
2023-05-03T11:57:11.745Z,1.87
2023-05-03T11:58:01.292Z,1.10
2023-05-03T11:59:01.295Z,1.60
2023-05-03T12:00:10.401Z,1.60
2023-05-03T12:01:01.697Z,1.33
2023-05-03T12:02:02.278Z,1.57
2023-05-03T12:03:01.517Z,1.00
2023-05-03T12:04:03.296Z,0.57
2023-05-03T12:05:02.055Z,0.77
2023-05-03T12:06:02.878Z,1.17
2023-05-03T12:07:03.626Z,1.17
2023-05-03T12:08:01.917Z,0.20
2023-05-03T12:09:02.989Z,1.13
2023-05-03T12:10:17.331Z,1.00
2023-05-03T12:11:02.753Z,1.20
2023-05-03T12:12:03.012Z,1.03
2023-05-03T12:13:01.880Z,1.00
2023-05-03T12:14:02.283Z,1.93
2023-05-03T12:15:04.036Z,0.90
2023-05-03T12:17:01.486Z,0.37
2023-05-03T12:18:05.171Z,0.47
2023-05-03T12:19:01.832Z,1.63
2023-05-03T12:20:51.116Z,1.93
2023-05-03T12:23:04.320Z,1.20
2023-05-03T12:24:01.724Z,2.23
2023-05-03T12:25:03.861Z,1.53
2023-05-03T12:26:01.473Z,1.90
2023-05-03T12:27:02.807Z,1.30
2023-05-03T12:29:02.225Z,1.73
2023-05-03T12:30:01.892Z,1.53
2023-05-03T12:31:03.177Z,1.30
2023-05-03T12:32:01.664Z,1.50
2023-05-03T12:33:04.336Z,1.60
2023-05-03T12:34:30.928Z,1.33
2023-05-03T12:35:02.655Z,1.47
2023-05-03T12:36:04.304Z,1.87
2023-05-03T12:37:03.958Z,0.73
2023-05-03T12:38:02.935Z,1.10
2023-05-03T12:39:02.228Z,0.20
2023-05-03T12:40:27.366Z,0.77
2023-05-03T12:41:01.376Z,0.40
2023-05-03T12:43:02.139Z,0.23
2023-05-03T12:44:01.747Z,0.53
2023-05-03T12:45:04.691Z,0.33
2023-05-03T12:46:25.741Z,0.67
2023-05-03T12:47:01.983Z,0.63
2023-05-03T12:48:01.902Z,1.13
2023-05-03T12:49:06.451Z,0.23
2023-05-03T12:50:03.508Z,0.53
2023-05-03T12:51:18.721Z,0.17
2023-05-03T12:52:32.911Z,0.67
2023-05-03T12:53:02.746Z,1.17
2023-05-03T12:54:02.183Z,0.90
2023-05-03T12:55:03.698Z,0.87
2023-05-03T12:56:04.416Z,0.50
2023-05-03T12:57:01.805Z,0.03
2023-05-03T12:58:26.777Z,0.00
2023-05-03T12:59:35.310Z,0.80
2023-05-03T13:00:03.733Z,0.17
2023-05-03T13:01:26.610Z,0.47
2023-05-03T13:05:02.224Z,0.60
2023-05-03T13:06:11.016Z,0.23
2023-05-03T13:07:02.430Z,0.57
2023-05-03T13:08:07.914Z,0.93
2023-05-03T13:09:03.447Z,0.30
2023-05-03T13:11:02.117Z,0.03
2023-05-03T13:12:01.803Z,0.50
2023-05-03T13:13:01.258Z,0.67
2023-05-03T13:14:01.299Z,1.00
2023-05-03T13:15:02.998Z,0.40
2023-05-03T13:16:01.307Z,1.00
2023-05-03T13:17:01.304Z,0.23
2023-05-03T13:18:01.845Z,0.33
2023-05-03T13:19:01.269Z,0.73
2023-05-03T13:20:01.302Z,0.17
2023-05-03T13:21:01.255Z,0.77
2023-05-03T13:22:01.460Z,1.00
2023-05-03T13:23:01.341Z,0.67
2023-05-03T13:24:01.281Z,0.17
2023-05-03T13:25:01.583Z,1.00
2023-05-03T13:26:01.606Z,0.23
2023-05-03T13:27:01.885Z,0.23
2023-05-03T13:28:01.290Z,0.63